Time;durP1;ratioP1;P1;durP2;ratioP2;P2;SDS_P1;SDS_P2;PMS_P1;PMS_P2;Temp;Humidity;BMP_temperature;BMP_pressure;BME280_temperature;BME280_humidity;BME280_pressure;Samples;Min_cycle;Max_cycle;Signal;HPM_P1;HPM_P2
2022/04/02 00:01:42;;;;;;;9.15;8.20;;;-0.40;99.90;;;;;;463010;257;27608;-72
2022/04/02 00:03:43;;;;;;;9.10;8.15;;;-0.40;99.90;;;;;;463006;257;27596;-72
2022/04/02 00:05:44;;;;;;;9.23;8.27;;;-0.30;99.90;;;;;;463005;257;27550;-71
2022/04/02 00:07:45;;;;;;;8.98;7.62;;;-0.40;99.90;;;;;;462954;257;27601;-72
2022/04/02 00:09:47;;;;;;;10.23;8.27;;;-0.40;99.90;;;;;;462983;257;27971;-74
2022/04/02 00:11:48;;;;;;;8.50;7.55;;;-0.40;99.90;;;;;;462959;257;27569;-72
2022/04/02 00:13:49;;;;;;;8.77;7.75;;;-0.40;99.90;;;;;;462975;257;27645;-73
2022/04/02 00:15:51;;;;;;;9.32;8.10;;;-0.40;99.90;;;;;;462979;257;28064;-71
2022/04/02 00:17:52;;;;;;;9.98;8.55;;;-0.40;99.90;;;;;;462949;257;28154;-71
2022/04/02 00:19:54;;;;;;;8.50;7.60;;;-0.40;99.90;;;;;;462988;257;27699;-72
2022/04/02 00:21:54;;;;;;;9.40;8.30;;;-0.30;99.90;;;;;;462972;253;27570;-71
2022/04/02 00:23:55;;;;;;;9.18;7.55;;;-0.30;99.90;;;;;;462970;255;27624;-71
2022/04/02 00:25:57;;;;;;;11.43;8.40;;;-0.30;99.90;;;;;;462951;257;27731;-71
2022/04/02 00:27:58;;;;;;;8.82;7.93;;;-0.30;99.90;;;;;;462941;257;27595;-72
2022/04/02 00:29:59;;;;;;;9.82;7.72;;;-0.30;99.90;;;;;;462959;257;28168;-74
2022/04/02 00:32:00;;;;;;;8.07;7.28;;;-0.30;99.90;;;;;;462969;257;27644;-71
2022/04/02 00:34:02;;;;;;;9.05;7.95;;;-0.30;99.90;;;;;;462966;257;28165;-71
2022/04/02 00:36:03;;;;;;;11.80;8.48;;;-0.40;99.90;;;;;;462967;257;28171;-71
2022/04/02 00:38:04;;;;;;;9.60;7.93;;;-0.40;99.90;;;;;;462953;257;28080;-71
2022/04/02 00:40:05;;;;;;;9.27;8.27;;;-0.40;99.90;;;;;;462995;257;27673;-73
2022/04/02 00:42:07;;;;;;;9.10;7.60;;;-0.40;99.90;;;;;;463010;257;27557;-72
2022/04/02 00:44:08;;;;;;;8.98;7.70;;;-0.40;99.90;;;;;;462981;257;27619;-72
2022/04/02 00:46:09;;;;;;;9.80;8.35;;;-0.30;99.90;;;;;;462943;257;27640;-71
2022/04/02 00:48:10;;;;;;;8.98;8.00;;;-0.30;99.90;;;;;;462975;257;27601;-72
2022/04/02 00:50:12;;;;;;;9.20;8.07;;;-0.40;99.90;;;;;;462998;257;27593;-72
2022/04/02 00:52:13;;;;;;;11.18;8.13;;;-0.40;99.90;;;;;;463069;257;27668;-72
2022/04/02 00:54:14;;;;;;;10.88;7.30;;;-0.40;99.90;;;;;;463013;257;28217;-72
2022/04/02 00:56:15;;;;;;;10.60;7.93;;;-0.40;99.90;;;;;;462999;257;28028;-71
2022/04/02 00:58:17;;;;;;;11.68;9.00;;;-0.40;99.90;;;;;;462985;257;27597;-71
2022/04/02 01:00:18;;;;;;;9.98;8.02;;;-0.40;99.90;;;;;;462981;257;27596;-72
2022/04/02 01:02:19;;;;;;;8.63;7.72;;;-0.40;99.90;;;;;;462984;257;27558;-71
2022/04/02 01:04:20;;;;;;;9.07;8.27;;;-0.30;99.90;;;;;;462977;257;27628;-71
2022/04/02 01:06:22;;;;;;;9.55;8.57;;;-0.40;99.90;;;;;;463006;257;27602;-71
2022/04/02 01:08:23;;;;;;;9.75;8.10;;;-0.40;99.90;;;;;;462965;257;27667;-72
2022/04/02 01:10:24;;;;;;;11.07;8.15;;;-0.40;99.90;;;;;;462952;257;27621;-72
2022/04/02 01:12:25;;;;;;;10.40;8.95;;;-0.40;99.90;;;;;;462901;253;28052;-71
2022/04/02 01:14:27;;;;;;;9.48;7.57;;;-0.40;99.90;;;;;;462929;257;28147;-71
2022/04/02 01:16:28;;;;;;;9.85;8.73;;;-0.40;99.90;;;;;;462948;257;27595;-71
2022/04/02 01:18:29;;;;;;;9.20;8.30;;;-0.40;99.90;;;;;;462987;257;27663;-72
2022/04/02 01:20:30;;;;;;;10.52;8.02;;;-0.30;99.90;;;;;;462998;257;27580;-72
2022/04/02 01:22:32;;;;;;;9.98;8.40;;;-0.40;99.90;;;;;;463007;257;27550;-71
2022/04/02 01:24:33;;;;;;;10.25;8.30;;;-0.40;99.90;;;;;;462992;257;27697;-71
2022/04/02 01:26:34;;;;;;;9.50;8.50;;;-0.40;99.90;;;;;;462987;257;27692;-72
2022/04/02 01:28:36;;;;;;;9.68;8.68;;;-0.50;99.90;;;;;;463007;255;28009;-72
2022/04/02 01:30:37;;;;;;;11.27;8.60;;;-0.40;99.90;;;;;;463031;257;28206;-72
2022/04/02 01:32:38;;;;;;;9.32;8.32;;;-0.50;99.90;;;;;;463020;257;28028;-71
2022/04/02 01:34:39;;;;;;;9.50;8.57;;;-0.40;99.90;;;;;;463041;257;27582;-72
2022/04/02 01:36:41;;;;;;;8.85;7.87;;;-0.40;99.90;;;;;;463034;257;27592;-72
2022/04/02 01:38:42;;;;;;;13.80;8.40;;;-0.40;99.90;;;;;;463031;257;27554;-71
2022/04/02 01:40:43;;;;;;;8.35;7.50;;;-0.40;99.90;;;;;;463008;257;27656;-72
2022/04/02 01:42:44;;;;;;;8.65;7.85;;;-0.40;99.90;;;;;;463005;257;27654;-71
2022/04/02 01:44:51;;;;;;;9.73;8.73;;;-0.40;99.90;;;;;;462990;257;27667;-71
2022/04/02 01:46:47;;;;;;;8.73;7.70;;;-0.40;99.90;;;;;;463207;253;27637;-72
2022/04/02 01:48:48;;;;;;;9.65;7.50;;;-0.40;99.90;;;;;;463007;257;28124;-71
2022/04/02 01:50:49;;;;;;;9.82;7.75;;;-0.40;99.90;;;;;;462990;257;28091;-72
2022/04/02 01:52:51;;;;;;;9.07;8.18;;;-0.40;99.90;;;;;;462952;257;29122;-71
2022/04/02 01:54:52;;;;;;;7.62;6.93;;;-0.40;99.90;;;;;;462962;257;27670;-71
2022/04/02 01:56:53;;;;;;;7.45;6.75;;;-0.40;99.90;;;;;;462990;257;27607;-73
2022/04/02 01:58:54;;;;;;;8.10;6.93;;;-0.30;99.90;;;;;;463000;257;27635;-72
2022/04/02 02:00:56;;;;;;;8.25;6.57;;;-0.40;99.90;;;;;;462966;257;27604;-71
2022/04/02 02:02:57;;;;;;;7.03;6.43;;;-0.30;99.90;;;;;;462967;257;27657;-71
2022/04/02 02:04:58;;;;;;;6.60;6.00;;;-0.40;99.90;;;;;;462962;257;27676;-71
2022/04/02 02:06:59;;;;;;;8.20;7.40;;;-0.30;99.90;;;;;;462985;257;27603;-73
2022/04/02 02:09:01;;;;;;;8.00;7.30;;;-0.40;99.90;;;;;;462984;257;28001;-72
2022/04/02 02:11:02;;;;;;;6.78;6.03;;;-0.30;99.90;;;;;;462968;257;28074;-72
2022/04/02 02:13:03;;;;;;;7.12;6.43;;;-0.20;99.90;;;;;;462972;257;28819;-71
2022/04/02 02:15:04;;;;;;;7.97;6.93;;;-0.30;99.90;;;;;;463021;253;27654;-72
2022/04/02 02:17:06;;;;;;;7.30;6.60;;;-0.40;99.90;;;;;;462982;257;27592;-73
2022/04/02 02:19:07;;;;;;;6.60;6.00;;;-0.40;99.90;;;;;;462986;257;27561;-71
2022/04/02 02:21:08;;;;;;;8.32;7.15;;;-0.40;99.90;;;;;;462983;257;27637;-72
2022/04/02 02:23:09;;;;;;;7.05;6.45;;;-0.40;99.90;;;;;;462999;257;27592;-74
2022/04/02 02:25:11;;;;;;;7.62;6.93;;;-0.50;99.90;;;;;;462985;257;27578;-72
2022/04/02 02:27:12;;;;;;;7.40;6.70;;;-0.40;99.90;;;;;;463028;253;27683;-72
2022/04/02 02:29:13;;;;;;;7.75;7.05;;;-0.40;99.90;;;;;;463019;257;28061;-71
2022/04/02 02:31:14;;;;;;;7.40;6.70;;;-0.40;99.90;;;;;;462964;257;28102;-72
2022/04/02 02:35:51;;;;;;;7.78;6.95;;;-0.40;99.90;;;;;;462975;256;28024;-71
2022/04/02 02:37:53;;;;;;;8.75;7.25;;;-0.40;99.90;;;;;;462996;257;27627;-72
2022/04/02 02:39:54;;;;;;;9.07;8.20;;;-0.40;99.90;;;;;;463000;253;28169;-72
2022/04/02 02:41:54;;;;;;;10.63;7.60;;;-0.40;99.90;;;;;;462996;254;28058;-72
2022/04/02 02:43:56;;;;;;;11.10;7.75;;;-0.50;99.90;;;;;;462978;257;28020;-72
2022/04/02 02:45:57;;;;;;;10.35;8.00;;;-0.50;99.90;;;;;;462988;257;27567;-72
2022/04/02 02:47:58;;;;;;;9.85;7.60;;;-0.50;99.90;;;;;;463003;257;27609;-72
2022/04/02 02:50:00;;;;;;;9.80;7.70;;;-0.40;99.90;;;;;;462982;257;27556;-72
2022/04/02 02:52:01;;;;;;;7.75;6.95;;;-0.40;99.90;;;;;;462991;253;27704;-71
2022/04/02 02:54:02;;;;;;;9.98;8.60;;;-0.50;99.90;;;;;;462961;257;27612;-72
2022/04/02 02:56:03;;;;;;;10.82;7.55;;;-0.50;99.90;;;;;;462973;257;27646;-72
2022/04/02 02:58:04;;;;;;;9.27;8.38;;;-0.60;99.90;;;;;;462980;257;28834;-72
2022/04/02 03:00:07;;;;;;;9.15;7.68;;;-0.60;99.90;;;;;;462967;257;28025;-72
2022/04/02 03:02:07;;;;;;;8.55;7.70;;;-0.50;99.90;;;;;;463014;253;28196;-72
2022/04/02 03:04:08;;;;;;;10.50;8.30;;;-0.50;99.90;;;;;;462963;257;27653;-71
2022/04/02 03:06:09;;;;;;;10.80;7.82;;;-0.60;99.90;;;;;;462998;257;27559;-72
2022/04/02 03:08:11;;;;;;;13.25;8.40;;;-0.50;99.90;;;;;;462957;257;27597;-72
2022/04/02 03:10:12;;;;;;;10.45;8.10;;;-0.50;99.90;;;;;;462941;257;27564;-72
2022/04/02 03:12:13;;;;;;;9.38;7.95;;;-0.60;99.90;;;;;;462940;257;27680;-72
2022/04/02 03:14:15;;;;;;;11.15;7.70;;;-0.60;99.90;;;;;;462752;257;27755;-71
2022/04/02 03:16:16;;;;;;;9.00;8.10;;;-0.50;99.90;;;;;;462995;253;28031;-72
2022/04/02 03:18:17;;;;;;;8.45;7.20;;;-0.60;99.90;;;;;;462975;257;29257;-71
2022/04/02 03:20:18;;;;;;;10.90;7.95;;;-0.60;99.90;;;;;;462991;257;27558;-72
2022/04/02 03:22:21;;;;;;;8.30;7.07;;;-0.70;99.90;;;;;;462994;257;27609;-72
2022/04/02 03:24:21;;;;;;;9.20;7.45;;;-0.60;99.90;;;;;;463022;253;27616;-74
2022/04/02 03:26:22;;;;;;;8.95;7.75;;;-0.70;99.90;;;;;;462997;257;27569;-71
2022/04/02 03:28:23;;;;;;;10.00;7.78;;;-0.60;99.90;;;;;;463065;257;27589;-72
2022/04/02 03:30:25;;;;;;;8.80;7.75;;;-0.70;99.90;;;;;;463067;257;27674;-72
2022/04/02 03:32:26;;;;;;;8.27;7.28;;;-0.70;99.90;;;;;;462966;257;28047;-72
2022/04/02 03:34:27;;;;;;;10.45;8.00;;;-0.70;99.90;;;;;;463002;257;28065;-73
2022/04/02 03:36:28;;;;;;;8.95;7.78;;;-0.60;99.90;;;;;;463003;257;27659;-71
2022/04/02 03:38:30;;;;;;;10.65;7.70;;;-0.70;99.90;;;;;;462966;257;27617;-72
2022/04/02 03:40:31;;;;;;;8.38;6.68;;;-0.60;99.90;;;;;;462962;257;27675;-71
2022/04/02 03:42:32;;;;;;;9.40;7.20;;;-0.60;99.90;;;;;;462967;257;27578;-72
2022/04/02 03:44:33;;;;;;;12.43;7.93;;;-0.60;99.90;;;;;;462988;257;27610;-73
2022/04/02 03:48:54;;;;;;;10.10;8.00;;;-0.60;99.90;;;;;;462976;257;27689;-72
2022/04/02 03:50:55;;;;;;;9.43;8.15;;;-0.60;99.90;;;;;;462997;257;27613;-72
2022/04/02 03:52:57;;;;;;;9.90;7.82;;;-0.60;99.90;;;;;;462967;257;27704;-71
2022/04/02 03:54:58;;;;;;;9.57;7.40;;;-0.60;99.90;;;;;;462960;257;27692;-72
2022/04/02 03:56:59;;;;;;;6.93;6.07;;;-0.60;99.90;;;;;;462962;257;27607;-72
2022/04/02 03:59:01;;;;;;;7.90;6.93;;;-0.60;99.90;;;;;;462988;257;28010;-71
2022/04/02 04:01:02;;;;;;;9.05;7.47;;;-0.60;99.90;;;;;;462971;253;28182;-72
2022/04/02 04:03:03;;;;;;;9.15;8.18;;;-0.60;99.90;;;;;;462968;257;27613;-71
2022/04/02 04:05:06;;;;;;;10.43;7.12;;;-0.60;99.90;;;;;;462968;257;27608;-72
2022/04/02 04:07:06;;;;;;;7.85;6.80;;;-0.60;99.90;;;;;;463001;252;27608;-74
2022/04/02 04:09:08;;;;;;;10.43;7.22;;;-0.60;99.90;;;;;;462977;257;27628;-72
2022/04/02 04:11:08;;;;;;;7.90;7.10;;;-0.60;99.90;;;;;;462981;253;27605;-72
2022/04/02 04:13:09;;;;;;;10.10;7.78;;;-0.60;99.90;;;;;;462947;257;27573;-72
2022/04/02 04:15:11;;;;;;;8.55;6.97;;;-0.60;99.90;;;;;;462946;257;27681;-72
2022/04/02 04:17:13;;;;;;;7.62;6.93;;;-0.70;99.90;;;;;;463012;257;28183;-73
2022/04/02 04:19:13;;;;;;;9.13;7.43;;;-0.60;99.90;;;;;;462995;253;28168;-72
2022/04/02 04:21:14;;;;;;;8.38;7.55;;;-0.60;99.90;;;;;;462990;257;27615;-72
2022/04/02 04:23:16;;;;;;;7.75;7.05;;;-0.70;99.90;;;;;;462987;257;27558;-72
2022/04/02 04:25:17;;;;;;;8.73;7.82;;;-0.70;99.90;;;;;;462998;257;27572;-72
2022/04/02 04:27:18;;;;;;;11.70;8.02;;;-0.70;99.90;;;;;;463014;257;27598;-73
2022/04/02 04:29:19;;;;;;;9.95;7.97;;;-0.70;99.90;;;;;;462996;257;27635;-72
2022/04/02 04:31:21;;;;;;;9.90;8.25;;;-0.70;99.90;;;;;;462960;257;27602;-72
2022/04/02 04:33:22;;;;;;;7.85;7.05;;;-0.80;99.90;;;;;;462978;257;27571;-72
2022/04/02 04:35:23;;;;;;;9.90;8.18;;;-0.70;99.90;;;;;;462993;257;28065;-72
2022/04/02 04:37:24;;;;;;;8.48;7.68;;;-0.70;99.90;;;;;;462985;257;28071;-72
2022/04/02 04:39:26;;;;;;;9.05;7.70;;;-0.70;99.90;;;;;;463002;257;28025;-72
2022/04/02 04:41:27;;;;;;;12.48;9.13;;;-0.80;99.90;;;;;;462973;257;27604;-72
2022/04/02 04:43:28;;;;;;;11.20;9.20;;;-0.70;99.90;;;;;;463008;257;27674;-71
2022/04/02 04:45:29;;;;;;;9.80;8.30;;;-0.80;99.90;;;;;;462997;257;27548;-72
2022/04/02 04:47:31;;;;;;;10.38;8.80;;;-0.80;99.90;;;;;;462991;257;27609;-72
2022/04/02 04:49:32;;;;;;;11.30;8.95;;;-0.80;99.90;;;;;;462997;257;27583;-71
2022/04/02 04:51:34;;;;;;;10.45;8.77;;;-0.80;99.90;;;;;;462970;257;27645;-72
2022/04/02 04:53:34;;;;;;;11.05;8.40;;;-0.80;99.90;;;;;;462984;257;28841;-71
2022/04/02 04:55:36;;;;;;;9.38;8.38;;;-0.80;99.90;;;;;;462995;257;28136;-72
2022/04/02 04:57:37;;;;;;;10.52;8.50;;;-0.90;99.90;;;;;;462992;257;27774;-72
2022/04/02 04:59:38;;;;;;;11.40;8.90;;;-0.80;99.90;;;;;;462996;257;27563;-72
2022/04/02 05:01:39;;;;;;;10.90;9.05;;;-0.80;99.90;;;;;;462992;257;27663;-72
2022/04/02 05:03:41;;;;;;;10.13;9.00;;;-0.70;99.90;;;;;;462998;257;27711;-71
2022/04/02 05:05:42;;;;;;;13.15;9.90;;;-0.80;99.90;;;;;;463000;257;27676;-72
2022/04/02 05:07:43;;;;;;;14.20;9.05;;;-0.90;99.90;;;;;;462911;257;27647;-72
2022/04/02 05:09:45;;;;;;;12.20;9.07;;;-0.80;99.90;;;;;;462990;257;28019;-72
2022/04/02 05:11:46;;;;;;;10.55;9.45;;;-0.80;99.90;;;;;;463012;253;28076;-72
2022/04/02 05:13:47;;;;;;;10.93;9.20;;;-0.70;99.90;;;;;;462972;254;27597;-74
2022/04/02 05:15:48;;;;;;;10.98;9.18;;;-0.80;99.90;;;;;;462984;257;27570;-72
2022/04/02 05:17:49;;;;;;;12.15;9.57;;;-0.90;99.90;;;;;;463001;254;27595;-72
2022/04/02 05:19:51;;;;;;;12.50;9.10;;;-0.90;99.90;;;;;;463020;257;27625;-72
2022/04/02 05:21:52;;;;;;;11.30;9.93;;;-0.90;99.90;;;;;;462985;257;27590;-72
2022/04/02 05:23:53;;;;;;;9.77;8.02;;;-0.90;99.90;;;;;;463008;255;27624;-73
2022/04/02 05:25:55;;;;;;;12.43;10.07;;;-0.90;99.90;;;;;;463015;257;28024;-72
2022/04/02 05:27:56;;;;;;;11.23;8.82;;;-0.90;99.90;;;;;;463003;257;28163;-72
2022/04/02 05:29:57;;;;;;;9.60;8.60;;;-0.80;99.90;;;;;;463032;257;27549;-72
2022/04/02 05:31:58;;;;;;;10.10;9.05;;;-0.90;99.90;;;;;;462998;257;27593;-72
2022/04/02 05:33:59;;;;;;;12.07;9.23;;;-0.90;99.90;;;;;;463017;257;27604;-74
2022/04/02 05:36:01;;;;;;;9.85;8.93;;;-0.90;99.90;;;;;;462982;257;27565;-72
2022/04/02 05:38:02;;;;;;;10.18;8.18;;;-0.90;99.90;;;;;;462975;257;27584;-73
2022/04/02 05:40:04;;;;;;;12.98;9.45;;;-0.90;99.90;;;;;;462976;257;27705;-71
2022/04/02 05:42:07;;;;;;;11.05;8.95;;;-0.90;99.90;;;;;;463018;253;28036;-72
2022/04/02 05:44:09;;;;;;;11.55;10.45;;;-0.90;99.90;;;;;;463006;257;29125;-72
2022/04/02 05:46:10;;;;;;;10.55;9.40;;;-0.90;99.90;;;;;;462991;257;27595;-72
2022/04/02 05:48:12;;;;;;;10.48;9.32;;;-0.90;99.90;;;;;;462971;257;27554;-72
2022/04/02 05:50:12;;;;;;;9.93;8.65;;;-0.90;99.90;;;;;;462956;257;27581;-72
2022/04/02 05:52:14;;;;;;;10.43;8.95;;;-1.00;99.90;;;;;;462998;257;27608;-72
2022/04/02 05:54:15;;;;;;;12.63;9.20;;;-1.00;99.90;;;;;;462986;257;27575;-72
2022/04/02 05:56:16;;;;;;;10.60;8.50;;;-1.00;99.90;;;;;;462980;257;27584;-72
2022/04/02 05:58:18;;;;;;;11.63;9.50;;;-0.90;99.90;;;;;;462980;257;28837;-71
2022/04/02 06:00:19;;;;;;;10.00;8.43;;;-1.00;99.90;;;;;;462976;257;29102;-71
2022/04/02 06:02:20;;;;;;;11.27;9.15;;;-0.90;99.90;;;;;;462995;257;27589;-73
2022/04/02 06:04:23;;;;;;;10.43;9.32;;;-0.90;99.90;;;;;;462960;257;27552;-71
2022/04/02 06:06:23;;;;;;;10.35;9.00;;;-0.90;99.90;;;;;;463072;253;27609;-72
2022/04/02 06:08:24;;;;;;;9.77;8.77;;;-1.00;99.90;;;;;;463007;257;27612;-72
2022/04/02 06:10:25;;;;;;;13.65;9.15;;;-1.00;99.90;;;;;;462997;257;27545;-72
2022/04/02 06:12:26;;;;;;;10.60;9.45;;;-1.00;99.90;;;;;;462985;257;27585;-72
2022/04/02 06:14:28;;;;;;;10.50;9.35;;;-1.00;99.90;;;;;;462992;254;28160;-72
2022/04/02 06:16:29;;;;;;;10.18;9.02;;;-1.00;99.90;;;;;;462944;257;29140;-72
2022/04/02 06:18:30;;;;;;;12.90;10.05;;;-1.00;99.90;;;;;;462993;257;27605;-73
2022/04/02 06:20:32;;;;;;;17.92;10.18;;;-1.10;99.90;;;;;;462987;257;27632;-72
2022/04/02 06:22:34;;;;;;;10.13;8.43;;;-1.10;99.90;;;;;;463001;257;26464;-72
2022/04/02 06:24:35;;;;;;;9.80;8.77;;;-1.00;99.90;;;;;;462993;257;27625;-72
2022/04/02 06:26:36;;;;;;;10.68;9.57;;;-1.00;99.90;;;;;;462982;257;28084;-72
2022/04/02 06:28:37;;;;;;;12.05;9.35;;;-1.00;99.90;;;;;;462983;257;28056;-72
2022/04/02 06:30:38;;;;;;;9.88;8.80;;;-1.00;99.90;;;;;;462993;257;27697;-74
2022/04/02 06:32:40;;;;;;;10.50;9.40;;;-1.00;99.90;;;;;;462999;257;27564;-72
2022/04/02 06:34:41;;;;;;;11.25;9.65;;;-1.00;99.90;;;;;;462963;257;27711;-72
2022/04/02 06:36:42;;;;;;;11.20;8.50;;;-1.00;99.90;;;;;;462990;257;27560;-72
2022/04/02 06:38:43;;;;;;;10.15;9.02;;;-1.00;99.90;;;;;;462966;257;27637;-72
2022/04/02 06:40:45;;;;;;;10.70;8.60;;;-1.10;99.90;;;;;;462992;257;27631;-74
2022/04/02 06:42:46;;;;;;;9.88;8.88;;;-1.10;99.90;;;;;;462983;257;28036;-72
2022/04/02 06:44:47;;;;;;;11.48;9.60;;;-1.00;99.90;;;;;;462967;257;29245;-73
2022/04/02 06:46:49;;;;;;;10.23;8.40;;;-1.00;99.90;;;;;;462965;257;27558;-72
2022/04/02 06:48:50;;;;;;;12.45;9.00;;;-1.00;99.90;;;;;;462982;257;27593;-72
2022/04/02 06:50:53;;;;;;;9.85;8.63;;;-1.10;99.90;;;;;;462995;257;27580;-73
2022/04/02 06:52:52;;;;;;;11.63;8.70;;;-1.00;99.90;;;;;;463064;253;27646;-72
2022/04/02 06:54:54;;;;;;;10.68;8.80;;;-1.00;99.90;;;;;;462962;257;27711;-72
2022/04/02 06:56:55;;;;;;;10.15;8.63;;;-1.00;99.90;;;;;;462996;257;27629;-72
2022/04/02 06:58:56;;;;;;;8.88;8.05;;;-1.10;99.90;;;;;;462978;257;28008;-72
2022/04/02 07:00:57;;;;;;;9.63;8.25;;;-1.10;99.90;;;;;;462982;257;28161;-73
2022/04/02 07:02:59;;;;;;;10.90;8.60;;;-1.10;99.90;;;;;;462956;257;28099;-72
2022/04/02 07:05:00;;;;;;;10.35;8.82;;;-1.10;99.90;;;;;;462970;257;27596;-72
2022/04/02 07:07:01;;;;;;;9.73;8.73;;;-1.10;99.90;;;;;;462976;257;27591;-71
2022/04/02 07:09:04;;;;;;;12.37;10.32;;;-1.10;99.90;;;;;;462993;257;27597;-71
2022/04/02 07:11:04;;;;;;;10.88;9.13;;;-1.00;99.90;;;;;;463028;253;27629;-72
2022/04/02 07:13:05;;;;;;;11.27;9.32;;;-0.80;99.90;;;;;;462980;257;27563;-71
2022/04/02 07:15:06;;;;;;;13.60;9.05;;;-0.70;99.90;;;;;;462945;257;28053;-71
2022/04/02 07:17:07;;;;;;;10.50;8.52;;;-0.90;99.90;;;;;;462984;257;28131;-71
2022/04/02 07:19:09;;;;;;;12.43;8.48;;;-0.90;99.90;;;;;;463019;257;27566;-71
2022/04/02 07:21:11;;;;;;;9.27;8.32;;;-1.10;99.90;;;;;;463016;257;27601;-73
2022/04/02 07:23:12;;;;;;;10.07;8.40;;;-1.00;99.90;;;;;;463013;253;27553;-71
2022/04/02 07:25:13;;;;;;;9.45;8.30;;;-0.90;99.90;;;;;;463016;253;27989;-71
2022/04/02 07:27:14;;;;;;;11.98;9.30;;;-1.00;99.90;;;;;;463004;253;27690;-73
2022/04/02 07:29:15;;;;;;;16.05;9.98;;;-1.10;99.90;;;;;;463010;257;27570;-72
2022/04/02 07:31:16;;;;;;;12.13;9.50;;;-1.10;99.90;;;;;;462985;257;28055;-72
2022/04/02 07:33:17;;;;;;;14.73;9.88;;;-0.90;99.90;;;;;;462968;257;28027;-71
2022/04/02 07:35:19;;;;;;;10.75;9.32;;;-1.00;99.90;;;;;;462966;257;27619;-71
2022/04/02 07:37:20;;;;;;;13.98;9.10;;;-0.90;99.90;;;;;;463000;257;27673;-73
2022/04/02 07:39:21;;;;;;;12.40;9.40;;;-0.90;99.90;;;;;;462999;257;27609;-72
2022/04/02 07:41:22;;;;;;;11.52;8.85;;;-0.70;99.90;;;;;;462953;257;27623;-72
2022/04/02 07:43:24;;;;;;;15.07;9.35;;;-0.50;99.90;;;;;;462957;257;27721;-71
2022/04/02 07:45:26;;;;;;;11.70;9.50;;;-0.60;99.90;;;;;;462965;257;27623;-72
2022/04/02 07:47:26;;;;;;;11.88;9.02;;;-0.70;99.90;;;;;;462970;253;28056;-73
2022/04/02 07:49:27;;;;;;;10.65;9.55;;;-0.80;99.90;;;;;;462989;257;28032;-71
2022/04/02 07:51:29;;;;;;;9.98;8.65;;;-0.80;99.90;;;;;;463000;257;27588;-72
2022/04/02 07:53:30;;;;;;;11.30;10.20;;;-0.70;99.90;;;;;;462990;257;27638;-71
2022/04/02 07:55:31;;;;;;;11.45;9.00;;;-0.70;99.90;;;;;;462984;257;27647;-72
2022/04/02 07:57:32;;;;;;;10.02;9.02;;;-0.60;99.90;;;;;;463010;257;27957;-73
2022/04/02 07:59:37;;;;;;;9.60;8.52;;;-0.70;99.90;;;;;;463002;257;27725;-71
2022/04/02 08:01:38;;;;;;;10.07;9.07;;;-0.80;99.90;;;;;;462983;257;27557;-73
2022/04/02 08:03:39;;;;;;;9.95;8.93;;;-0.70;99.90;;;;;;463034;257;27652;-71
2022/04/02 08:05:40;;;;;;;9.80;8.90;;;-0.70;99.90;;;;;;463024;254;27629;-72
2022/04/02 08:07:49;;;;;;;9.25;8.45;;;-0.70;99.90;;;;;;463004;255;27557;-72
2022/04/02 08:09:46;;;;;;;10.57;9.32;;;-0.50;99.90;;;;;;463182;253;28000;-72
2022/04/02 08:11:50;;;;;;;11.73;9.35;;;-0.70;99.90;;;;;;463004;257;27578;-72
2022/04/02 08:13:51;;;;;;;11.45;9.82;;;-0.70;99.90;;;;;;463020;257;27600;-72
2022/04/02 08:15:54;;;;;;;8.27;6.93;;;-0.90;99.90;;;;;;463011;257;27633;-72
2022/04/02 08:17:55;;;;;;;9.57;7.22;;;-0.90;99.90;;;;;;463039;253;27584;-72
2022/04/02 08:19:55;;;;;;;8.90;7.70;;;-0.70;99.90;;;;;;463020;253;27605;-73
2022/04/02 08:21:56;;;;;;;8.13;7.10;;;-0.60;99.90;;;;;;463005;257;27569;-71
2022/04/02 08:23:58;;;;;;;10.40;7.80;;;-0.70;99.90;;;;;;462989;257;27621;-72
2022/04/02 08:25:59;;;;;;;8.05;7.25;;;-0.60;99.90;;;;;;462998;257;28841;-71
2022/04/02 08:28:00;;;;;;;8.75;7.57;;;-0.30;99.90;;;;;;463004;257;28026;-72
2022/04/02 08:30:02;;;;;;;8.07;7.25;;;-0.50;99.90;;;;;;463020;257;28058;-72
2022/04/02 08:32:03;;;;;;;8.18;6.90;;;-0.80;99.90;;;;;;463002;257;27542;-72
2022/04/02 08:34:04;;;;;;;9.27;7.43;;;-0.80;99.90;;;;;;462989;257;27612;-72
2022/04/02 08:36:05;;;;;;;9.48;7.60;;;-0.70;99.90;;;;;;462984;254;27566;-71
2022/04/02 08:38:07;;;;;;;11.00;7.60;;;-0.60;99.90;;;;;;462987;257;27575;-72
2022/04/02 08:40:08;;;;;;;9.60;7.35;;;-0.60;99.90;;;;;;463011;253;27597;-73
2022/04/02 08:42:09;;;;;;;10.55;8.00;;;-0.80;99.90;;;;;;463006;257;27556;-72
2022/04/02 08:44:10;;;;;;;7.90;7.10;;;-0.50;99.90;;;;;;462999;257;27628;-73
2022/04/02 08:46:11;;;;;;;9.90;7.37;;;-0.60;99.90;;;;;;463014;257;27989;-72
2022/04/02 08:48:13;;;;;;;9.85;8.23;;;-0.40;99.90;;;;;;463007;257;28118;-72
2022/04/02 08:50:14;;;;;;;8.13;6.82;;;-0.40;99.90;;;;;;463036;257;27603;-74
2022/04/02 08:52:15;;;;;;;11.15;7.25;;;-0.20;99.90;;;;;;463027;257;27658;-72
2022/04/02 08:54:16;;;;;;;8.45;7.20;;;-0.70;99.90;;;;;;463004;257;27591;-73
2022/04/02 08:56:18;;;;;;;9.95;7.32;;;-0.60;99.90;;;;;;462989;257;27604;-72
2022/04/02 08:58:19;;;;;;;7.28;6.37;;;-0.50;99.90;;;;;;463000;257;27672;-73
2022/04/02 09:00:23;;;;;;;7.25;6.50;;;-0.50;99.90;;;;;;462988;257;27666;-75
2022/04/02 09:02:21;;;;;;;9.93;7.12;;;-0.70;99.90;;;;;;463095;253;27567;-72
2022/04/02 09:04:23;;;;;;;8.50;7.00;;;-0.50;99.90;;;;;;463009;257;28045;-73
2022/04/02 09:06:24;;;;;;;7.32;6.57;;;-0.30;99.90;;;;;;462990;257;28168;-72
2022/04/02 09:08:26;;;;;;;7.12;6.35;;;-0.30;99.90;;;;;;462989;257;28174;-72
2022/04/02 09:10:26;;;;;;;10.07;7.10;;;-0.30;99.90;;;;;;462999;253;27595;-72
2022/04/02 09:12:28;;;;;;;7.90;7.07;;;-0.30;99.90;;;;;;463028;257;27566;-72
2022/04/02 09:14:29;;;;;;;8.82;7.12;;;-0.60;99.90;;;;;;463009;257;27667;-73
2022/04/02 09:16:30;;;;;;;8.82;7.12;;;-0.60;99.90;;;;;;462982;257;27562;-71
2022/04/02 09:18:31;;;;;;;8.60;7.03;;;-0.60;99.90;;;;;;462986;253;27645;-72
2022/04/02 09:20:35;;;;;;;8.75;6.70;;;-0.70;99.90;;;;;;462990;254;27626;-71
2022/04/02 09:22:36;;;;;;;8.13;6.93;;;-0.20;99.90;;;;;;463050;253;27725;-72
2022/04/02 09:24:35;;;;;;;8.70;6.22;;;-0.20;99.90;;;;;;463052;253;28178;-72
2022/04/02 09:26:36;;;;;;;11.48;8.07;;;0.10;99.90;;;;;;463038;257;28017;-72
2022/04/02 09:28:38;;;;;;;9.70;7.10;;;-0.40;99.90;;;;;;462993;257;27603;-72
2022/04/02 09:30:40;;;;;;;7.45;6.62;;;-0.40;99.90;;;;;;463017;257;27573;-75
2022/04/02 09:32:41;;;;;;;7.93;7.05;;;-0.20;99.90;;;;;;462981;257;27593;-73
2022/04/02 09:34:43;;;;;;;11.98;7.55;;;-0.40;99.90;;;;;;463022;257;27564;-72
2022/04/02 09:36:44;;;;;;;8.20;6.75;;;-0.20;99.90;;;;;;462999;257;28109;-73
2022/04/02 09:38:48;;;;;;;8.90;6.70;;;;;;;;;;462988;257;28116;-75
2022/04/02 09:40:49;;;;;;;7.95;7.15;;;-0.40;99.90;;;;;;463001;257;26399;-72
2022/04/02 09:42:50;;;;;;;9.38;6.57;;;-0.30;99.90;;;;;;462995;257;27592;-72
2022/04/02 09:44:51;;;;;;;8.25;7.03;;;-0.10;99.90;;;;;;462965;257;27535;-72
2022/04/02 09:46:53;;;;;;;8.50;5.90;;;-0.20;99.90;;;;;;463018;257;27564;-73
2022/04/02 09:48:54;;;;;;;6.37;5.78;;;-0.40;99.90;;;;;;463003;257;28234;-74
2022/04/02 09:50:58;;;;;;;10.55;7.10;;;-0.30;99.90;;;;;;463003;257;27588;-72
2022/04/02 09:52:56;;;;;;;7.68;6.30;;;-0.30;99.90;;;;;;463132;251;28037;-72
2022/04/02 09:54:58;;;;;;;7.57;6.30;;;-0.10;99.90;;;;;;462988;254;28179;-75
2022/04/02 09:56:59;;;;;;;6.90;6.00;;;0.20;99.90;;;;;;463007;257;28091;-73
2022/04/02 09:59:00;;;;;;;8.68;6.22;;;0.40;99.90;;;;;;463029;257;27672;-73
2022/04/02 10:01:01;;;;;;;7.72;6.35;;;0.40;99.90;;;;;;463019;257;27557;-72
2022/04/02 10:03:03;;;;;;;8.07;7.22;;;0.50;99.90;;;;;;463022;257;27657;-72
2022/04/02 10:05:05;;;;;;;7.20;6.50;;;0.60;99.90;;;;;;463024;253;27673;-73
2022/04/02 10:07:05;;;;;;;11.55;6.37;;;0.30;99.90;;;;;;463073;253;27599;-73
2022/04/02 10:09:07;;;;;;;7.93;6.85;;;0.20;99.90;;;;;;463019;257;27713;-74
2022/04/02 10:11:11;;;;;;;11.93;7.35;;;0.30;99.90;;;;;;462988;257;27544;-72
2022/04/02 10:13:12;;;;;;;7.30;6.25;;;0.30;99.90;;;;;;462986;257;28108;-73
2022/04/02 10:15:14;;;;;;;7.75;6.20;;;0.60;99.90;;;;;;462991;254;28059;-72
2022/04/02 10:17:14;;;;;;;6.95;6.10;;;0.40;99.90;;;;;;463014;253;27612;-75
2022/04/02 10:19:16;;;;;;;6.05;5.47;;;0.40;99.90;;;;;;462981;257;27558;-72
2022/04/02 10:21:17;;;;;;;7.00;6.30;;;0.30;99.90;;;;;;463004;257;27697;-72
2022/04/02 10:23:18;;;;;;;7.62;6.50;;;0.00;99.90;;;;;;463006;257;27548;-72
2022/04/02 10:25:19;;;;;;;6.95;6.25;;;-0.10;99.90;;;;;;463056;254;27573;-72
2022/04/02 10:27:21;;;;;;;9.10;6.40;;;0.00;99.90;;;;;;463032;257;27690;-73
2022/04/02 10:29:22;;;;;;;7.25;6.55;;;0.20;99.90;;;;;;462996;254;27545;-71
2022/04/02 10:31:23;;;;;;;8.77;6.30;;;0.00;99.90;;;;;;462906;257;27591;-72
2022/04/02 10:33:27;;;;;;;8.45;6.40;;;0.00;99.90;;;;;;462838;257;28417;-71